Time;durP1;ratioP1;P1;durP2;ratioP2;P2;SDS_P1;SDS_P2;PMS_P1;PMS_P2;Temp;Humidity;BMP_temperature;BMP_pressure;BME280_temperature;BME280_humidity;BME280_pressure;Samples;Min_cycle;Max_cycle;Signal;HPM_P1;HPM_P2
2022/01/16 00:00:47;;;;;;;;;;;;;;;;;;2096886;28;19908;-71
2022/01/16 00:04:06;;;;;;;;;;;;;;;;;;2099526;28;19917;-72
2022/01/16 00:04:07;;;;;;;;;;;;;;;;;;2099619;28;19912;-71
2022/01/16 00:05:25;;;;;;;;;;;;;;;;;;2090732;28;19913;-71
2022/01/16 00:06:47;;;;;;;;;;;;;;;;;;2088337;28;20395;-71
2022/01/16 00:08:06;;;;;;;;;;;;;;;;;;2087164;28;20334;-71
2022/01/16 00:09:25;;;;;;;;;;;;;;;;;;2096508;28;19912;-71
2022/01/16 00:10:44;;;;;;;;;;;;;;;;;;2092394;28;19912;-71
2022/01/16 00:12:05;;;;;;;;;;;;;;;;;;2095240;28;19920;-71
2022/01/16 00:13:24;;;;;;;;;;;;;;;;;;2090827;28;20255;-71
2022/01/16 00:14:43;;;;;;;;;;;;;;;;;;2087122;28;19917;-71
2022/01/16 00:16:02;;;;;;;;;;;;;;;;;;2086947;28;19909;-70
2022/01/16 00:17:23;;;;;;;;;;;;;;;;;;2095336;28;20304;-71
2022/01/16 00:18:49;;;;;;;;;;;;;;;;;;2098671;28;19924;-71
2022/01/16 00:20:07;;;;;;;;;;;;;;;;;;2099100;28;19909;-71
2022/01/16 00:21:26;;;;;;;;;;;;;;;;;;2097521;28;19912;-71
2022/01/16 00:22:47;;;;;;;;;;;;;;;;;;2099993;28;19920;-71
2022/01/16 00:24:06;;;;;;;;;;;;;;;;;;2100140;28;20007;-71
2022/01/16 00:25:25;;;;;;;;;;;;;;;;;;2101676;28;19908;-71
2022/01/16 00:26:44;;;;;;;;;;;;;;;;;;2091813;28;19921;-71
2022/01/16 00:28:03;;;;;;;;;;;;;;;;;;2096888;28;20310;-71
2022/01/16 00:29:22;;;;;;;;;;;;;;;;;;2098317;28;19908;-71
2022/01/16 00:30:41;;;;;;;;;;;;;;;;;;2093269;28;19920;-71
2022/01/16 00:31:59;;;;;;;;;;;;;;;;;;2091746;28;20359;-71
2022/01/16 00:33:18;;;;;;;;;;;;;;;;;;2093234;28;19921;-71
2022/01/16 00:34:37;;;;;;;;;;;;;;;;;;2095781;28;19912;-71
2022/01/16 00:35:56;;;;;;;;;;;;;;;;;;2092721;28;19908;-72
2022/01/16 00:37:14;;;;;;;;;;;;;;;;;;2095579;28;19916;-72
2022/01/16 00:38:34;;;;;;;;;;;;;;;;;;2099065;28;19916;-72
2022/01/16 00:39:52;;;;;;;;;;;;;;;;;;2101504;28;19991;-72
2022/01/16 00:41:11;;;;;;;;;;;;;;;;;;2101584;28;20366;-72
2022/01/16 00:42:30;;;;;;;;;;;;;;;;;;2100194;28;19917;-72
2022/01/16 00:43:49;;;;;;;;;;;;;;;;;;2101723;28;19913;-73
2022/01/16 00:45:08;;;;;;;;;;;;;;;;;;2101574;28;19909;-72
2022/01/16 00:46:27;;;;;;;;;;;;;;;;;;2100476;28;19916;-71
2022/01/16 00:47:46;;;;;;;;;;;;;;;;;;2100709;28;19916;-72
2022/01/16 00:49:05;;;;;;;;;;;;;;;;;;2091852;28;19953;-72
2022/01/16 00:50:24;;;;;;;;;;;;;;;;;;2097697;28;19916;-72
2022/01/16 00:51:43;;;;;;;;;;;;;;;;;;2100748;28;19916;-72
2022/01/16 00:53:02;;;;;;;;;;;;;;;;;;2091882;28;19913;-72
2022/01/16 00:54:21;;;;;;;;;;;;;;;;;;2098123;28;19912;-71
2022/01/16 00:55:41;;;;;;;;;;;;;;;;;;2100587;28;19908;-72
2022/01/16 00:56:59;;;;;;;;;;;;;;;;;;2091113;28;19909;-71
2022/01/16 00:58:18;;;;;;;;;;;;;;;;;;2096558;28;19913;-71
2022/01/16 00:59:37;;;;;;;;;;;;;;;;;;2100360;28;19921;-71
2022/01/16 01:00:56;;;;;;;;;;;;;;;;;;2101447;28;19916;-72
2022/01/16 01:02:15;;;;;;;;;;;;;;;;;;2099453;28;19995;-72
2022/01/16 01:03:34;;;;;;;;;;;;;;;;;;2090683;28;20011;-71
2022/01/16 01:04:53;;;;;;;;;;;;;;;;;;2095983;28;19908;-71
2022/01/16 01:06:12;;;;;;;;;;;;;;;;;;2101663;28;19935;-72
2022/01/16 01:07:31;;;;;;;;;;;;;;;;;;2100047;28;19959;-71
2022/01/16 01:08:50;;;;;;;;;;;;;;;;;;2101586;28;19947;-71
2022/01/16 01:10:09;;;;;;;;;;;;;;;;;;2099846;28;19948;-71
2022/01/16 01:11:30;;;;;;;;;;;;;;;;;;2102884;28;19931;-71
2022/01/16 01:12:53;;;;;;;;;;;;;;;;;;2103077;22;19893;-81
2022/01/16 01:14:22;;;;;;;;;;;;;;;;;;2092889;28;20007;-81
2022/01/16 01:15:43;;;;;;;;;;;;;;;;;;2091948;28;20381;-81
2022/01/16 01:17:03;;;;;;;;;;;;;;;;;;2090275;28;19944;-82
2022/01/16 01:18:23;;;;;;;;;;;;;;;;;;2088653;28;19917;-81
2022/01/16 01:19:41;;;;;;;;;;;;;;;;;;2094117;28;19913;-80
2022/01/16 01:21:02;;;;;;;;;;;;;;;;;;2091384;28;20028;-81
2022/01/16 01:22:21;;;;;;;;;;;;;;;;;;2091632;28;19912;-80
2022/01/16 01:23:40;;;;;;;;;;;;;;;;;;2090416;28;20003;-81
2022/01/16 01:25:01;;;;;;;;;;;;;;;;;;2090128;28;19916;-81
2022/01/16 01:26:25;;;;;;;;;;;;;;;;;;2093850;28;19912;-81
2022/01/16 01:27:44;;;;;;;;;;;;;;;;;;2098389;28;19916;-81
2022/01/16 01:29:03;;;;;;;;;;;;;;;;;;2092849;28;19909;-81
2022/01/16 01:30:24;;;;;;;;;;;;;;;;;;2097137;28;20327;-82
2022/01/16 01:31:42;;;;;;;;;;;;;;;;;;2092358;28;19909;-81
2022/01/16 01:33:01;;;;;;;;;;;;;;;;;;2087459;28;20297;-80
2022/01/16 01:34:20;;;;;;;;;;;;;;;;;;2097106;28;20351;-81
2022/01/16 01:35:39;;;;;;;;;;;;;;;;;;2090275;28;19908;-81
2022/01/16 01:36:58;;;;;;;;;;;;;;;;;;2089757;28;19948;-81
2022/01/16 01:38:18;;;;;;;;;;;;;;;;;;2088231;28;19921;-81
2022/01/16 01:39:37;;;;;;;;;;;;;;;;;;2097374;28;20035;-81
2022/01/16 01:40:56;;;;;;;;;;;;;;;;;;2100276;28;19909;-81
2022/01/16 01:42:16;;;;;;;;;;;;;;;;;;2093767;28;19908;-82
2022/01/16 01:51:26;;;;;;;;;;;;;;;;;;2102478;28;19908;-81
2022/01/16 01:52:45;;;;;;;;;;;;;;;;;;2092331;28;19912;-81
2022/01/16 01:54:04;;;;;;;;;;;;;;;;;;2091142;28;19916;-81
2022/01/16 01:55:24;;;;;;;;;;;;;;;;;;2092970;28;19909;-81
2022/01/16 01:56:42;;;;;;;;;;;;;;;;;;2090498;28;20328;-82
2022/01/16 01:58:01;;;;;;;;;;;;;;;;;;2095046;28;19909;-82
2022/01/16 01:59:20;;;;;;;;;;;;;;;;;;2091216;28;19913;-81
2022/01/16 02:00:38;;;;;;;;;;;;;;;;;;2098654;28;19916;-82
2022/01/16 02:01:57;;;;;;;;;;;;;;;;;;2094036;28;20442;-81
2022/01/16 02:03:33;;;;;;;;;;;;;;;;;;2090195;28;19913;-82
2022/01/16 02:04:52;;;;;;;;;;;;;;;;;;2092026;28;19913;-82
2022/01/16 02:06:11;;;;;;;;;;;;;;;;;;2093550;28;19909;-82
2022/01/16 02:07:29;;;;;;;;;;;;;;;;;;2092161;28;19908;-81
2022/01/16 02:08:50;;;;;;;;;;;;;;;;;;2098014;28;19955;-81
2022/01/16 02:10:09;;;;;;;;;;;;;;;;;;2092082;28;19912;-82
2022/01/16 02:11:29;;;;;;;;;;;;;;;;;;2093255;28;19916;-82
2022/01/16 02:12:54;;;;;;;;;;;;;;;;;;2099259;28;19928;-82
2022/01/16 02:14:28;;;;;;;;;;;;;;;;;;2092988;28;19929;-82
2022/01/16 02:28:47;;;;;;;;;;;;;;;;;;2100011;28;19912;-83
2022/01/16 02:31:45;;;;;;;;;;;;;;;;;;2102954;28;19912;-82
2022/01/16 02:35:50;;;;;;;;;;;;;;;;;;2101044;28;19908;-82
2022/01/16 02:37:12;;;;;;;;;;;;;;;;;;2091431;28;19912;-82
2022/01/16 02:38:31;;;;;;;;;;;;;;;;;;2096235;28;19913;-82
2022/01/16 02:39:52;;;;;;;;;;;;;;;;;;2094606;28;19916;-82
2022/01/16 02:41:11;;;;;;;;;;;;;;;;;;2088056;28;20293;-82
2022/01/16 02:42:36;;;;;;;;;;;;;;;;;;2093522;28;19908;-82
2022/01/16 02:43:57;;;;;;;;;;;;;;;;;;2097179;28;19921;-83
2022/01/16 02:45:27;;;;;;;;;;;;;;;;;;2093029;28;19917;-82
2022/01/16 02:46:46;;;;;;;;;;;;;;;;;;2090611;28;19908;-82
2022/01/16 02:48:08;;;;;;;;;;;;;;;;;;2089863;28;19924;-83
2022/01/16 02:49:27;;;;;;;;;;;;;;;;;;2090973;28;19912;-82
2022/01/16 02:50:46;;;;;;;;;;;;;;;;;;2091614;28;19917;-81
2022/01/16 02:52:05;;;;;;;;;;;;;;;;;;2094253;28;20455;-81
2022/01/16 02:53:24;;;;;;;;;;;;;;;;;;2088185;28;19948;-82
2022/01/16 02:54:42;;;;;;;;;;;;;;;;;;2088814;28;20362;-81
2022/01/16 02:56:01;;;;;;;;;;;;;;;;;;2087534;28;19910;-83
2022/01/16 02:57:20;;;;;;;;;;;;;;;;;;2092564;28;19912;-82
2022/01/16 02:58:39;;;;;;;;;;;;;;;;;;2092315;28;19913;-81
2022/01/16 02:59:58;;;;;;;;;;;;;;;;;;2091461;28;19916;-81
2022/01/16 03:01:16;;;;;;;;;;;;;;;;;;2087887;28;19916;-81
2022/01/16 03:02:35;;;;;;;;;;;;;;;;;;2091133;28;19944;-82
2022/01/16 03:03:54;;;;;;;;;;;;;;;;;;2090475;28;19909;-82
2022/01/16 03:05:12;;;;;;;;;;;;;;;;;;2096879;28;20043;-82
2022/01/16 03:06:31;;;;;;;;;;;;;;;;;;2091227;28;19909;-82
2022/01/16 03:07:50;;;;;;;;;;;;;;;;;;2090259;28;19912;-82
2022/01/16 03:09:10;;;;;;;;;;;;;;;;;;2089715;28;19987;-82
2022/01/16 03:12:09;;;;;;;;;;;;;;;;;;2101496;28;19913;-82
2022/01/16 03:13:31;;;;;;;;;;;;;;;;;;2103045;28;19924;-82
2022/01/16 03:14:50;;;;;;;;;;;;;;;;;;2099899;28;19916;-82
2022/01/16 03:16:09;;;;;;;;;;;;;;;;;;2093575;28;19916;-82
2022/01/16 03:22:28;;;;;;;;;;;;;;;;;;2100080;28;19916;-82
2022/01/16 03:23:47;;;;;;;;;;;;;;;;;;2102771;28;19908;-82
2022/01/16 03:25:06;;;;;;;;;;;;;;;;;;2092927;28;19975;-81
2022/01/16 03:26:25;;;;;;;;;;;;;;;;;;2093037;28;19949;-82
2022/01/16 03:27:44;;;;;;;;;;;;;;;;;;2089898;28;19913;-81
2022/01/16 03:29:03;;;;;;;;;;;;;;;;;;2090536;28;19916;-81
2022/01/16 03:30:22;;;;;;;;;;;;;;;;;;2097156;28;20019;-81
2022/01/16 03:31:41;;;;;;;;;;;;;;;;;;2093180;28;19940;-82
2022/01/16 03:32:59;;;;;;;;;;;;;;;;;;2088810;28;19921;-81
2022/01/16 03:34:18;;;;;;;;;;;;;;;;;;2097412;28;19916;-82
2022/01/16 03:35:37;;;;;;;;;;;;;;;;;;2101076;28;19960;-81
2022/01/16 03:36:56;;;;;;;;;;;;;;;;;;2099919;28;19916;-81
2022/01/16 03:38:15;;;;;;;;;;;;;;;;;;2092045;28;19909;-82
2022/01/16 03:39:34;;;;;;;;;;;;;;;;;;2095978;28;19917;-81
2022/01/16 03:40:56;;;;;;;;;;;;;;;;;;2092958;28;19920;-82
2022/01/16 03:42:21;;;;;;;;;;;;;;;;;;2099078;28;19944;-81
2022/01/16 03:43:40;;;;;;;;;;;;;;;;;;2093283;28;19916;-81
2022/01/16 03:44:59;;;;;;;;;;;;;;;;;;2095511;28;19963;-81
2022/01/16 03:46:18;;;;;;;;;;;;;;;;;;2093113;28;19925;-82
2022/01/16 03:47:36;;;;;;;;;;;;;;;;;;2098975;28;20273;-81
2022/01/16 03:48:56;;;;;;;;;;;;;;;;;;2092966;28;20349;-84
2022/01/16 03:50:14;;;;;;;;;;;;;;;;;;2087352;28;19921;-81
2022/01/16 03:51:33;;;;;;;;;;;;;;;;;;2089376;28;20397;-82
2022/01/16 03:52:51;;;;;;;;;;;;;;;;;;2097071;28;20357;-81
2022/01/16 03:54:10;;;;;;;;;;;;;;;;;;2092955;28;19912;-80
2022/01/16 03:55:29;;;;;;;;;;;;;;;;;;2089073;28;19912;-81
2022/01/16 03:56:48;;;;;;;;;;;;;;;;;;2087114;28;19917;-81
2022/01/16 03:58:07;;;;;;;;;;;;;;;;;;2094111;28;19908;-81
2022/01/16 03:59:26;;;;;;;;;;;;;;;;;;2095422;28;19912;-81
2022/01/16 04:00:44;;;;;;;;;;;;;;;;;;2092427;28;19912;-81
2022/01/16 04:02:04;;;;;;;;;;;;;;;;;;2090626;28;20362;-81
2022/01/16 04:03:23;;;;;;;;;;;;;;;;;;2092229;28;19909;-81
2022/01/16 04:04:42;;;;;;;;;;;;;;;;;;2091135;28;19921;-83
2022/01/16 04:06:01;;;;;;;;;;;;;;;;;;2093312;28;19913;-81
2022/01/16 04:07:27;;;;;;;;;;;;;;;;;;2095447;28;19909;-81
2022/01/16 04:08:45;;;;;;;;;;;;;;;;;;2095786;28;19917;-81
2022/01/16 04:10:05;;;;;;;;;;;;;;;;;;2099019;28;19912;-82
2022/01/16 04:11:23;;;;;;;;;;;;;;;;;;2093219;28;19913;-81
2022/01/16 04:12:44;;;;;;;;;;;;;;;;;;2093514;28;20314;-81
2022/01/16 04:14:07;;;;;;;;;;;;;;;;;;2090578;28;19920;-81
2022/01/16 04:15:32;;;;;;;;;;;;;;;;;;2092472;28;19921;-82
2022/01/16 04:16:52;;;;;;;;;;;;;;;;;;2092887;28;19908;-81
2022/01/16 04:18:10;;;;;;;;;;;;;;;;;;2095596;28;19913;-82
2022/01/16 04:19:29;;;;;;;;;;;;;;;;;;2094393;28;19908;-81
2022/01/16 04:20:48;;;;;;;;;;;;;;;;;;2093289;28;19917;-81
2022/01/16 04:22:07;;;;;;;;;;;;;;;;;;2098418;28;19916;-81
2022/01/16 04:23:27;;;;;;;;;;;;;;;;;;2095056;28;19912;-81
2022/01/16 04:24:46;;;;;;;;;;;;;;;;;;2091130;28;19908;-79
2022/01/16 04:26:04;;;;;;;;;;;;;;;;;;2089229;28;19924;-81
2022/01/16 04:27:23;;;;;;;;;;;;;;;;;;2089364;28;19952;-82
2022/01/16 04:28:42;;;;;;;;;;;;;;;;;;2089565;28;20352;-81
2022/01/16 04:30:01;;;;;;;;;;;;;;;;;;2100083;28;19917;-81
2022/01/16 04:31:20;;;;;;;;;;;;;;;;;;2093474;28;19916;-81
2022/01/16 04:32:39;;;;;;;;;;;;;;;;;;2089770;28;19920;-81
2022/01/16 04:33:58;;;;;;;;;;;;;;;;;;2091504;28;19939;-81
2022/01/16 04:35:16;;;;;;;;;;;;;;;;;;2092025;28;19912;-80
2022/01/16 04:36:37;;;;;;;;;;;;;;;;;;2090857;28;19916;-80
2022/01/16 04:37:55;;;;;;;;;;;;;;;;;;2090649;28;19909;-80
2022/01/16 04:39:18;;;;;;;;;;;;;;;;;;2091795;28;20293;-81
2022/01/16 04:43:47;;;;;;;;;;;;;;;;;;2091604;28;19952;-80
2022/01/16 04:43:59;;;;;;;;;;;;;;;;;;2103764;28;19908;-82
2022/01/16 04:45:18;;;;;;;;;;;;;;;;;;2092735;28;19916;-81
2022/01/16 04:46:37;;;;;;;;;;;;;;;;;;2099656;28;19920;-81
2022/01/16 04:47:55;;;;;;;;;;;;;;;;;;2091501;28;19908;-81
2022/01/16 04:49:14;;;;;;;;;;;;;;;;;;2091759;28;19909;-81
2022/01/16 04:50:33;;;;;;;;;;;;;;;;;;2098235;28;19916;-81
2022/01/16 04:51:52;;;;;;;;;;;;;;;;;;2094507;28;19912;-81
2022/01/16 04:53:11;;;;;;;;;;;;;;;;;;2097186;28;20353;-81
2022/01/16 04:54:31;;;;;;;;;;;;;;;;;;2093585;28;19921;-82
2022/01/16 04:55:50;;;;;;;;;;;;;;;;;;2088852;28;19917;-81
2022/01/16 04:57:13;;;;;;;;;;;;;;;;;;2098223;28;19916;-81
2022/01/16 04:58:32;;;;;;;;;;;;;;;;;;2094270;28;19912;-81
2022/01/16 04:59:51;;;;;;;;;;;;;;;;;;2094956;28;19909;-81
2022/01/16 05:01:09;;;;;;;;;;;;;;;;;;2096100;28;19925;-81
2022/01/16 05:02:28;;;;;;;;;;;;;;;;;;2092519;28;19917;-81
2022/01/16 05:03:47;;;;;;;;;;;;;;;;;;2089904;28;20297;-81
2022/01/16 05:05:06;;;;;;;;;;;;;;;;;;2091733;28;19912;-81
2022/01/16 05:06:25;;;;;;;;;;;;;;;;;;2092220;28;20596;-80
2022/01/16 05:07:43;;;;;;;;;;;;;;;;;;2090394;28;19913;-81
2022/01/16 05:09:02;;;;;;;;;;;;;;;;;;2088944;28;20374;-81
2022/01/16 05:10:21;;;;;;;;;;;;;;;;;;2088110;28;19956;-81
2022/01/16 05:11:40;;;;;;;;;;;;;;;;;;2086528;28;19917;-81
2022/01/16 05:13:25;;;;;;;;;;;;;;;;;;2088989;28;20389;-81
2022/01/16 05:17:53;;;;;;;;;;;;;;;;;;2100168;28;20011;-81
2022/01/16 05:19:12;;;;;;;;;;;;;;;;;;2094032;28;20261;-82
2022/01/16 05:20:31;;;;;;;;;;;;;;;;;;2090957;28;20308;-81
2022/01/16 05:21:50;;;;;;;;;;;;;;;;;;2089133;28;19908;-82
2022/01/16 05:23:08;;;;;;;;;;;;;;;;;;2088593;28;19913;-81
2022/01/16 05:24:32;;;;;;;;;;;;;;;;;;2099992;28;19908;-81
2022/01/16 05:25:51;;;;;;;;;;;;;;;;;;2091971;28;19920;-81
2022/01/16 05:27:10;;;;;;;;;;;;;;;;;;2086980;28;20424;-80
2022/01/16 05:28:29;;;;;;;;;;;;;;;;;;2092816;28;19916;-81
2022/01/16 05:29:47;;;;;;;;;;;;;;;;;;2091627;28;19916;-80
2022/01/16 05:31:06;;;;;;;;;;;;;;;;;;2093306;28;19912;-81
2022/01/16 05:32:25;;;;;;;;;;;;;;;;;;2088432;28;20033;-80
2022/01/16 05:33:44;;;;;;;;;;;;;;;;;;2089693;28;19921;-81
2022/01/16 05:35:03;;;;;;;;;;;;;;;;;;2091686;28;19908;-80
2022/01/16 05:36:22;;;;;;;;;;;;;;;;;;2097786;28;20007;-80
2022/01/16 05:37:41;;;;;;;;;;;;;;;;;;2092844;28;19912;-82
2022/01/16 05:39:00;;;;;;;;;;;;;;;;;;2091126;28;20373;-81
2022/01/16 05:40:19;;;;;;;;;;;;;;;;;;2099493;28;19912;-80
2022/01/16 05:41:38;;;;;;;;;;;;;;;;;;2100548;28;20108;-81
2022/01/16 05:42:57;;;;;;;;;;;;;;;;;;2091383;28;19920;-80
2022/01/16 05:44:15;;;;;;;;;;;;;;;;;;2097197;28;19908;-80
2022/01/16 05:45:34;;;;;;;;;;;;;;;;;;2093956;28;19909;-80
2022/01/16 05:46:53;;;;;;;;;;;;;;;;;;2088113;28;19956;-80
2022/01/16 05:48:12;;;;;;;;;;;;;;;;;;2089013;28;20313;-80
2022/01/16 05:49:30;;;;;;;;;;;;;;;;;;2093146;28;19913;-80
2022/01/16 05:50:49;;;;;;;;;;;;;;;;;;2092263;28;19908;-80
2022/01/16 05:52:08;;;;;;;;;;;;;;;;;;2090623;28;19969;-81
2022/01/16 05:53:27;;;;;;;;;;;;;;;;;;2096643;28;19971;-80
2022/01/16 05:54:46;;;;;;;;;;;;;;;;;;2101851;28;19921;-81
2022/01/16 05:56:05;;;;;;;;;;;;;;;;;;2094706;28;20032;-81
2022/01/16 05:57:24;;;;;;;;;;;;;;;;;;2087901;28;19916;-81
2022/01/16 05:58:42;;;;;;;;;;;;;;;;;;2090286;28;19909;-81
2022/01/16 06:00:01;;;;;;;;;;;;;;;;;;2089937;28;19916;-80
2022/01/16 06:01:20;;;;;;;;;;;;;;;;;;2089674;28;19921;-83
2022/01/16 06:02:39;;;;;;;;;;;;;;;;;;2086953;28;19916;-85
2022/01/16 06:03:58;;;;;;;;;;;;;;;;;;2092374;28;20268;-85
2022/01/16 06:05:16;;;;;;;;;;;;;;;;;;2094213;28;19909;-83
2022/01/16 06:06:35;;;;;;;;;;;;;;;;;;2089093;28;19963;-82
2022/01/16 06:08:00;;;;;;;;;;;;;;;;;;2088359;28;19916;-83
2022/01/16 06:09:19;;;;;;;;;;;;;;;;;;2090177;28;20389;-85
2022/01/16 06:10:38;;;;;;;;;;;;;;;;;;2091436;28;19970;-85
2022/01/16 06:11:57;;;;;;;;;;;;;;;;;;2093396;28;19916;-85
2022/01/16 06:13:16;;;;;;;;;;;;;;;;;;2096035;28;19916;-81
2022/01/16 06:14:35;;;;;;;;;;;;;;;;;;2089401;28;19912;-83
2022/01/16 06:15:53;;;;;;;;;;;;;;;;;;2099084;28;19975;-81
2022/01/16 06:17:12;;;;;;;;;;;;;;;;;;2089923;28;19956;-82
2022/01/16 06:18:31;;;;;;;;;;;;;;;;;;2090848;28;19909;-83
2022/01/16 06:19:50;;;;;;;;;;;;;;;;;;2093434;28;19909;-86
2022/01/16 06:21:09;;;;;;;;;;;;;;;;;;2092945;28;19912;-84
2022/01/16 06:22:28;;;;;;;;;;;;;;;;;;2097416;28;20007;-83
2022/01/16 06:23:47;;;;;;;;;;;;;;;;;;2090114;28;19920;-84
2022/01/16 06:25:06;;;;;;;;;;;;;;;;;;2086461;28;20525;-84
2022/01/16 06:26:25;;;;;;;;;;;;;;;;;;2088552;28;19968;-84
2022/01/16 06:27:43;;;;;;;;;;;;;;;;;;2091464;28;19908;-85
2022/01/16 06:29:02;;;;;;;;;;;;;;;;;;2088120;28;19912;-85
2022/01/16 06:30:21;;;;;;;;;;;;;;;;;;2089331;28;19917;-85
2022/01/16 06:31:39;;;;;;;;;;;;;;;;;;2088366;28;19913;-85
2022/01/16 06:32:58;;;;;;;;;;;;;;;;;;2088174;28;20039;-84
2022/01/16 06:34:17;;;;;;;;;;;;;;;;;;2097426;28;19917;-86
2022/01/16 06:35:36;;;;;;;;;;;;;;;;;;2090534;28;19921;-85
2022/01/16 06:36:55;;;;;;;;;;;;;;;;;;2088974;28;19957;-85
2022/01/16 06:38:13;;;;;;;;;;;;;;;;;;2097424;28;19916;-87
2022/01/16 06:39:32;;;;;;;;;;;;;;;;;;2093111;28;19913;-86
2022/01/16 06:40:51;;;;;;;;;;;;;;;;;;2087085;28;19913;-86
2022/01/16 06:42:10;;;;;;;;;;;;;;;;;;2098139;28;19917;-85
2022/01/16 06:43:29;;;;;;;;;;;;;;;;;;2089806;28;19920;-84
2022/01/16 06:44:48;;;;;;;;;;;;;;;;;;2088747;28;19912;-83
2022/01/16 06:46:07;;;;;;;;;;;;;;;;;;2088170;28;19913;-81
2022/01/16 06:47:25;;;;;;;;;;;;;;;;;;2090931;28;19948;-86
2022/01/16 06:48:44;;;;;;;;;;;;;;;;;;2096509;28;19995;-84
2022/01/16 06:50:03;;;;;;;;;;;;;;;;;;2090801;28;19964;-88
2022/01/16 06:51:23;;;;;;;;;;;;;;;;;;2092944;28;19964;-84
2022/01/16 06:52:42;;;;;;;;;;;;;;;;;;2096220;28;19912;-83
2022/01/16 06:54:02;;;;;;;;;;;;;;;;;;2092535;28;19921;-83
2022/01/16 06:55:20;;;;;;;;;;;;;;;;;;2085943;28;19912;-86
2022/01/16 06:56:39;;;;;;;;;;;;;;;;;;2088457;28;19929;-86
2022/01/16 06:57:58;;;;;;;;;;;;;;;;;;2089974;28;19921;-84
2022/01/16 06:59:17;;;;;;;;;;;;;;;;;;2092042;28;19980;-88
2022/01/16 07:00:35;;;;;;;;;;;;;;;;;;2097596;28;19926;-79
2022/01/16 07:01:54;;;;;;;;;;;;;;;;;;2097643;28;19913;-85
2022/01/16 07:03:14;;;;;;;;;;;;;;;;;;2092390;28;19917;-89
2022/01/16 07:04:33;;;;;;;;;;;;;;;;;;2088296;28;19952;-87
2022/01/16 07:05:51;;;;;;;;;;;;;;;;;;2087122;28;19913;-85
2022/01/16 07:07:10;;;;;;;;;;;;;;;;;;2088649;28;19908;-86
2022/01/16 07:08:29;;;;;;;;;;;;;;;;;;2091436;28;20287;-86
2022/01/16 07:09:48;;;;;;;;;;;;;;;;;;2097639;28;19912;-82
2022/01/16 07:11:07;;;;;;;;;;;;;;;;;;2090589;28;19912;-85
2022/01/16 07:12:25;;;;;;;;;;;;;;;;;;2088398;28;19952;-84
2022/01/16 07:13:45;;;;;;;;;;;;;;;;;;2085677;28;19925;-82
2022/01/16 07:15:03;;;;;;;;;;;;;;;;;;2090896;28;19917;-82
2022/01/16 07:16:22;;;;;;;;;;;;;;;;;;2091510;28;19913;-84
2022/01/16 07:17:41;;;;;;;;;;;;;;;;;;2095657;28;19917;-83
2022/01/16 07:19:00;;;;;;;;;;;;;;;;;;2089897;28;19928;-86
2022/01/16 07:20:19;;;;;;;;;;;;;;;;;;2088660;28;19909;-83
2022/01/16 07:21:38;;;;;;;;;;;;;;;;;;2088947;28;19908;-82
2022/01/16 07:22:56;;;;;;;;;;;;;;;;;;2090778;28;19913;-84
2022/01/16 07:24:15;;;;;;;;;;;;;;;;;;2097860;28;19921;-87
2022/01/16 07:25:34;;;;;;;;;;;;;;;;;;2088895;28;19909;-84
2022/01/16 07:26:54;;;;;;;;;;;;;;;;;;2090472;28;19908;-87
2022/01/16 07:28:13;;;;;;;;;;;;;;;;;;2097799;28;19916;-86
2022/01/16 07:29:32;;;;;;;;;;;;;;;;;;2092178;28;19916;-86
2022/01/16 07:30:51;;;;;;;;;;;;;;;;;;2087364;28;19909;-86
2022/01/16 07:32:09;;;;;;;;;;;;;;;;;;2098043;28;20371;-85
2022/01/16 07:33:28;;;;;;;;;;;;;;;;;;2090714;28;20350;-84
2022/01/16 07:34:47;;;;;;;;;;;;;;;;;;2097728;28;19916;-83
2022/01/16 07:36:06;;;;;;;;;;;;;;;;;;2091305;28;19913;-87
2022/01/16 07:37:25;;;;;;;;;;;;;;;;;;2091232;28;20405;-84
2022/01/16 07:38:45;;;;;;;;;;;;;;;;;;2098591;28;19920;-84
2022/01/16 07:40:04;;;;;;;;;;;;;;;;;;2093098;28;20363;-86
2022/01/16 07:41:22;;;;;;;;;;;;;;;;;;2098724;28;20015;-83
2022/01/16 07:42:41;;;;;;;;;;;;;;;;;;2100770;28;20357;-85
2022/01/16 07:44:01;;;;;;;;;;;;;;;;;;2092330;28;19917;-85
2022/01/16 07:45:20;;;;;;;;;;;;;;;;;;2090087;28;19909;-86
2022/01/16 07:46:38;;;;;;;;;;;;;;;;;;2089736;28;19916;-87
2022/01/16 07:47:57;;;;;;;;;;;;;;;;;;2091191;28;19917;-87
2022/01/16 07:49:16;;;;;;;;;;;;;;;;;;2097909;28;19983;-85
2022/01/16 07:50:34;;;;;;;;;;;;;;;;;;2093549;28;19909;-86
2022/01/16 07:51:53;;;;;;;;;;;;;;;;;;2092966;28;19908;-87
2022/01/16 07:53:12;;;;;;;;;;;;;;;;;;2097179;28;19912;-88
2022/01/16 07:54:31;;;;;;;;;;;;;;;;;;2098087;28;19924;-86
2022/01/16 07:55:50;;;;;;;;;;;;;;;;;;2093650;28;20367;-84
2022/01/16 07:57:09;;;;;;;;;;;;;;;;;;2098536;28;19912;-84
2022/01/16 07:58:28;;;;;;;;;;;;;;;;;;2093615;28;19921;-85
2022/01/16 07:59:46;;;;;;;;;;;;;;;;;;2098427;28;19955;-87
2022/01/16 08:01:05;;;;;;;;;;;;;;;;;;2100269;28;19916;-86
2022/01/16 08:02:24;;;;;;;;;;;;;;;;;;2103785;28;19959;-87
2022/01/16 08:03:43;;;;;;;;;;;;;;;;;;2093878;28;19913;-85
2022/01/16 08:05:02;;;;;;;;;;;;;;;;;;2094315;28;19921;-84
2022/01/16 08:06:21;;;;;;;;;;;;;;;;;;2093495;28;19947;-83
2022/01/16 08:07:40;;;;;;;;;;;;;;;;;;2092647;28;19913;-84
2022/01/16 08:08:59;;;;;;;;;;;;;;;;;;2093514;28;19917;-83
2022/01/16 08:10:18;;;;;;;;;;;;;;;;;;2087970;28;19913;-86
2022/01/16 08:11:37;;;;;;;;;;;;;;;;;;2091222;28;20372;-84
2022/01/16 08:12:56;;;;;;;;;;;;;;;;;;2088460;28;20420;-83
2022/01/16 08:14:14;;;;;;;;;;;;;;;;;;2093091;28;19917;-85
2022/01/16 08:15:33;;;;;;;;;;;;;;;;;;2094040;28;19912;-83
2022/01/16 08:16:52;;;;;;;;;;;;;;;;;;2091816;28;19956;-87
2022/01/16 08:18:11;;;;;;;;;;;;;;;;;;2093585;28;19917;-84
2022/01/16 08:19:29;;;;;;;;;;;;;;;;;;2096028;28;19917;-85
2022/01/16 08:20:48;;;;;;;;;;;;;;;;;;2096016;28;19916;-83
2022/01/16 08:22:10;;;;;;;;;;;;;;;;;;2091857;28;19944;-84
2022/01/16 08:23:29;;;;;;;;;;;;;;;;;;2090345;28;19912;-84
2022/01/16 08:24:48;;;;;;;;;;;;;;;;;;2087941;28;19999;-83
2022/01/16 08:26:07;;;;;;;;;;;;;;;;;;2089962;28;19908;-84
2022/01/16 08:27:26;;;;;;;;;;;;;;;;;;2089326;28;20380;-85
2022/01/16 08:28:44;;;;;;;;;;;;;;;;;;2085514;28;19913;-83
2022/01/16 08:30:03;;;;;;;;;;;;;;;;;;2086333;28;19912;-84
2022/01/16 08:31:23;;;;;;;;;;;;;;;;;;2085181;28;19909;-85
2022/01/16 08:32:43;;;;;;;;;;;;;;;;;;2089129;28;19917;-85
2022/01/16 08:34:02;;;;;;;;;;;;;;;;;;2089352;28;19916;-85
2022/01/16 08:35:21;;;;;;;;;;;;;;;;;;2088971;28;19948;-85
2022/01/16 08:36:40;;;;;;;;;;;;;;;;;;2088630;28;19916;-84
2022/01/16 08:37:59;;;;;;;;;;;;;;;;;;2090999;28;20058;-85
2022/01/16 08:39:18;;;;;;;;;;;;;;;;;;2086745;28;19912;-84
2022/01/16 08:40:37;;;;;;;;;;;;;;;;;;2090334;28;19964;-86
2022/01/16 08:41:56;;;;;;;;;;;;;;;;;;2099435;28;19955;-85
2022/01/16 08:43:15;;;;;;;;;;;;;;;;;;2094081;28;19917;-85
2022/01/16 08:44:33;;;;;;;;;;;;;;;;;;2089120;28;19909;-83
2022/01/16 08:45:52;;;;;;;;;;;;;;;;;;2089560;28;19913;-84
2022/01/16 08:47:11;;;;;;;;;;;;;;;;;;2094088;28;19912;-85
2022/01/16 08:48:30;;;;;;;;;;;;;;;;;;2094072;28;20300;-85
2022/01/16 08:49:48;;;;;;;;;;;;;;;;;;2092073;28;20324;-84
2022/01/16 08:51:07;;;;;;;;;;;;;;;;;;2098193;28;19917;-84
2022/01/16 08:52:26;;;;;;;;;;;;;;;;;;2092930;28;19909;-84
2022/01/16 08:53:45;;;;;;;;;;;;;;;;;;2099353;28;19912;-85
2022/01/16 08:55:04;;;;;;;;;;;;;;;;;;2092101;28;19917;-84
2022/01/16 08:56:23;;;;;;;;;;;;;;;;;;2089275;28;19972;-84
2022/01/16 08:57:42;;;;;;;;;;;;;;;;;;2088348;28;19913;-85
2022/01/16 08:59:01;;;;;;;;;;;;;;;;;;2088042;28;19917;-84
2022/01/16 09:00:20;;;;;;;;;;;;;;;;;;2091276;28;19913;-84
2022/01/16 09:01:39;;;;;;;;;;;;;;;;;;2089611;28;19920;-84
2022/01/16 09:02:57;;;;;;;;;;;;;;;;;;2088700;28;19912;-84
2022/01/16 09:04:16;;;;;;;;;;;;;;;;;;2089498;28;19913;-84
2022/01/16 09:05:35;;;;;;;;;;;;;;;;;;2092659;28;19913;-84
2022/01/16 09:06:53;;;;;;;;;;;;;;;;;;2091882;28;19913;-85
2022/01/16 09:08:12;;;;;;;;;;;;;;;;;;2093100;28;19916;-84
2022/01/16 09:09:31;;;;;;;;;;;;;;;;;;2098026;28;19960;-84
2022/01/16 09:10:51;;;;;;;;;;;;;;;;;;2100458;28;19916;-83
2022/01/16 09:12:10;;;;;;;;;;;;;;;;;;2093562;28;19991;-84
2022/01/16 09:13:29;;;;;;;;;;;;;;;;;;2088293;28;20396;-84
2022/01/16 09:14:47;;;;;;;;;;;;;;;;;;2088777;28;19913;-83
2022/01/16 09:16:06;;;;;;;;;;;;;;;;;;2093303;28;19920;-84
2022/01/16 09:17:25;;;;;;;;;;;;;;;;;;2095241;28;19913;-84
2022/01/16 09:18:44;;;;;;;;;;;;;;;;;;2091144;28;20565;-84
2022/01/16 09:20:03;;;;;;;;;;;;;;;;;;2086883;28;19916;-85
2022/01/16 09:21:22;;;;;;;;;;;;;;;;;;2087954;28;19916;-85
2022/01/16 09:22:41;;;;;;;;;;;;;;;;;;2094709;28;19952;-84
2022/01/16 09:24:00;;;;;;;;;;;;;;;;;;2091672;28;19913;-85
2022/01/16 09:25:20;;;;;;;;;;;;;;;;;;2084881;28;19916;-86
2022/01/16 09:26:39;;;;;;;;;;;;;;;;;;2088568;28;19916;-86
2022/01/16 09:27:58;;;;;;;;;;;;;;;;;;2087767;28;19908;-86
2022/01/16 09:29:17;;;;;;;;;;;;;;;;;;2093977;28;19909;-91
2022/01/16 09:30:36;;;;;;;;;;;;;;;;;;2087740;28;19921;-85
2022/01/16 09:31:55;;;;;;;;;;;;;;;;;;2083896;28;20382;-82
2022/01/16 09:33:15;;;;;;;;;;;;;;;;;;2092748;28;20311;-87
2022/01/16 09:34:34;;;;;;;;;;;;;;;;;;2092185;28;19920;-86
2022/01/16 09:35:54;;;;;;;;;;;;;;;;;;2088223;28;19920;-82
2022/01/16 09:37:13;;;;;;;;;;;;;;;;;;2084412;28;19913;-84
2022/01/16 09:38:32;;;;;;;;;;;;;;;;;;2086331;28;20417;-83
2022/01/16 09:39:52;;;;;;;;;;;;;;;;;;2089199;28;19913;-86